Time;durP1;ratioP1;P1;durP2;ratioP2;P2;SDS_P1;SDS_P2;PMS_P1;PMS_P2;Temp;Humidity;BMP_temperature;BMP_pressure;BME280_temperature;BME280_humidity;BME280_pressure;Samples;Min_cycle;Max_cycle;Signal;HPM_P1;HPM_P2
2022/08/01 00:01:22;;;;;;;6.93;1.65;;;22.50;99.90;;;;;;4172256;28;20168;-95
2022/08/01 00:03:23;;;;;;;3.03;1.35;;;22.40;99.90;;;;;;4174408;28;20238;-90
2022/08/01 00:05:23;;;;;;;4.20;1.63;;;22.40;99.90;;;;;;4191960;28;20179;-88
2022/08/01 00:07:24;;;;;;;3.90;1.70;;;22.40;99.90;;;;;;4176596;28;20172;-94
2022/08/01 00:09:25;;;;;;;6.05;1.65;;;22.30;99.90;;;;;;4159012;28;20216;-87
2022/08/01 00:11:26;;;;;;;4.15;1.63;;;22.10;99.90;;;;;;4159101;28;20157;-94
2022/08/01 00:13:26;;;;;;;4.63;1.60;;;22.00;99.90;;;;;;4160086;28;20181;-96
2022/08/01 00:15:27;;;;;;;5.47;1.90;;;22.20;99.90;;;;;;4155002;28;20216;-87
2022/08/01 00:17:28;;;;;;;4.00;1.75;;;22.30;99.90;;;;;;4174441;28;20184;-87
2022/08/01 00:19:28;;;;;;;4.43;1.95;;;22.10;99.90;;;;;;4157377;28;20169;-96
2022/08/01 00:21:29;;;;;;;6.03;1.80;;;22.10;99.90;;;;;;4192934;28;20195;-94
2022/08/01 00:23:30;;;;;;;3.47;1.42;;;22.10;99.90;;;;;;4190866;28;20195;-94
2022/08/01 00:25:31;;;;;;;5.00;1.63;;;22.00;99.90;;;;;;4158098;28;20195;-88
2022/08/01 00:27:32;;;;;;;4.03;1.90;;;22.10;99.90;;;;;;4158195;28;20165;-93
2022/08/01 00:29:35;;;;;;;5.30;1.73;;;22.10;99.90;;;;;;4176027;28;20168;-87
2022/08/01 00:31:35;;;;;;;5.88;1.60;;;22.00;99.90;;;;;;4178100;28;20596;-96
2022/08/01 00:33:36;;;;;;;4.47;2.00;;;21.90;99.90;;;;;;4159607;28;20281;-94
2022/08/01 00:35:37;;;;;;;4.57;1.77;;;22.10;99.90;;;;;;4158928;28;20176;-87
2022/08/01 00:37:38;;;;;;;5.35;1.85;;;22.00;99.90;;;;;;4155895;28;20161;-94
2022/08/01 00:39:38;;;;;;;4.60;1.90;;;21.90;99.90;;;;;;4174527;28;20235;-87
2022/08/01 00:41:39;;;;;;;8.45;2.00;;;21.80;99.90;;;;;;4191877;28;20155;-96
2022/08/01 00:43:40;;;;;;;10.75;2.20;;;21.80;99.90;;;;;;4177230;28;20157;-86
2022/08/01 00:45:41;;;;;;;6.43;2.15;;;21.80;99.90;;;;;;4160204;28;20252;-96
2022/08/01 00:47:42;;;;;;;7.88;2.53;;;21.90;99.90;;;;;;4195544;28;20174;-95
2022/08/01 00:49:43;;;;;;;6.60;2.33;;;21.80;99.90;;;;;;4179204;28;20180;-96
2022/08/01 00:51:44;;;;;;;8.93;2.42;;;21.80;99.90;;;;;;4177202;28;20184;-87
2022/08/01 00:53:44;;;;;;;5.90;2.42;;;21.80;99.90;;;;;;4192471;28;20586;-92
2022/08/01 00:55:47;;;;;;;9.18;2.90;;;21.90;99.90;;;;;;4158544;28;20184;-92
2022/08/01 00:57:49;;;;;;;6.53;2.85;;;21.90;99.90;;;;;;4175376;28;20236;-92
2022/08/01 00:59:50;;;;;;;8.52;2.85;;;21.70;99.90;;;;;;4157025;28;20169;-86
2022/08/01 01:01:51;;;;;;;7.63;2.63;;;21.60;99.90;;;;;;4160862;28;20204;-87
2022/08/01 01:03:52;;;;;;;8.75;3.40;;;21.70;99.90;;;;;;4163443;28;20181;-86
2022/08/01 01:06:30;;;;;;;11.85;3.67;;;21.80;99.90;;;;;;4179415;28;20188;-94
2022/08/01 01:08:41;;;;;;;11.57;4.50;;;21.80;99.90;;;;;;4137821;28;20202;-94
2022/08/01 01:10:56;;;;;;;12.32;4.18;;;21.80;99.90;;;;;;4195861;28;20545;-96
2022/08/01 01:13:21;;;;;;;10.45;4.03;;;21.70;99.90;;;;;;4195179;28;20307;-94
2022/08/01 01:15:42;;;;;;;14.43;5.20;;;21.80;99.90;;;;;;4177559;28;20176;-96
2022/08/01 01:18:25;;;;;;;15.00;4.93;;;21.80;99.90;;;;;;4175226;28;20211;-94
2022/08/01 01:20:37;;;;;;;11.15;4.10;;;21.80;99.90;;;;;;4194713;28;20209;-86
2022/08/01 01:22:56;;;;;;;13.20;4.10;;;21.60;99.90;;;;;;4160802;28;20196;-86
2022/08/01 01:25:21;;;;;;;10.82;4.22;;;21.60;99.90;;;;;;4195427;28;20226;-95
2022/08/01 01:27:38;;;;;;;13.15;4.40;;;21.60;99.90;;;;;;4175250;28;20176;-87
2022/08/01 01:29:59;;;;;;;11.13;4.60;;;21.50;99.90;;;;;;4178611;28;20199;-86
2022/08/01 01:32:29;;;;;;;12.80;4.65;;;21.60;99.90;;;;;;4159447;28;20177;-96
2022/08/01 01:34:57;;;;;;;13.55;4.95;;;21.60;99.90;;;;;;4173496;28;20234;-86
2022/08/01 01:37:01;;;;;;;15.75;5.50;;;21.70;99.90;;;;;;4159787;28;20195;-94
2022/08/01 01:39:02;;;;;;;14.40;5.82;;;21.60;99.90;;;;;;4172142;28;20216;-96
2022/08/01 01:41:04;;;;;;;15.68;4.93;;;21.50;99.90;;;;;;4174596;28;20165;-87
2022/08/01 01:43:11;;;;;;;16.30;5.78;;;21.70;99.90;;;;;;4161410;28;20193;-86
2022/08/01 01:45:12;;;;;;;14.10;5.50;;;21.60;99.90;;;;;;4173162;28;20203;-91
2022/08/01 01:47:14;;;;;;;16.85;5.78;;;21.50;99.90;;;;;;4190940;28;20185;-86
2022/08/01 01:49:17;;;;;;;16.73;6.05;;;21.50;99.90;;;;;;4157050;28;20211;-91
2022/08/01 01:51:22;;;;;;;11.88;4.88;;;21.50;99.90;;;;;;4157896;28;20220;-95
2022/08/01 01:53:23;;;;;;;15.98;4.97;;;21.40;99.90;;;;;;4155218;28;20203;-91
2022/08/01 01:55:26;;;;;;;13.73;4.88;;;21.30;99.90;;;;;;4175062;28;20184;-90
2022/08/01 01:57:29;;;;;;;13.75;5.03;;;21.40;99.90;;;;;;4175089;28;20186;-89
2022/08/01 01:59:34;;;;;;;11.98;4.75;;;21.50;99.90;;;;;;4191035;28;20210;-86
2022/08/01 02:01:35;;;;;;;12.00;4.57;;;21.60;99.90;;;;;;4173519;28;20204;-86
2022/08/01 02:03:38;;;;;;;14.20;4.45;;;21.60;99.90;;;;;;4190121;28;20166;-87
2022/08/01 02:05:40;;;;;;;10.73;3.78;;;21.60;99.90;;;;;;4177605;28;20160;-87
2022/08/01 02:07:43;;;;;;;11.25;3.75;;;21.70;99.90;;;;;;4174453;28;20171;-87
2022/08/01 02:09:46;;;;;;;8.70;3.50;;;21.60;99.90;;;;;;4190725;28;20326;-87
2022/08/01 02:11:48;;;;;;;8.52;3.33;;;21.60;99.90;;;;;;4188515;28;20166;-86
2022/08/01 02:13:56;;;;;;;10.80;3.38;;;21.70;99.90;;;;;;4173647;28;20176;-90
2022/08/01 02:15:58;;;;;;;14.63;4.05;;;21.70;99.90;;;;;;4177757;28;20193;-86
2022/08/01 02:18:00;;;;;;;11.30;3.80;;;21.90;99.90;;;;;;4190235;28;20207;-86
2022/08/01 02:20:01;;;;;;;13.65;4.22;;;22.00;99.90;;;;;;4192226;28;20203;-92
2022/08/01 02:22:21;;;;;;;10.68;3.83;;;21.90;99.90;;;;;;4161804;28;20209;-86
2022/08/01 02:24:38;;;;;;;10.98;3.88;;;21.70;99.90;;;;;;4173754;28;20172;-87
2022/08/01 02:26:43;;;;;;;10.15;4.50;;;21.60;99.90;;;;;;4173454;28;20172;-86
2022/08/01 02:29:06;;;;;;;12.38;4.72;;;21.80;99.90;;;;;;4174335;28;20785;-87
2022/08/01 02:31:14;;;;;;;12.90;4.38;;;21.60;99.90;;;;;;4174055;28;20251;-93
2022/08/01 02:33:38;;;;;;;10.02;4.90;;;21.40;99.90;;;;;;4174912;28;20172;-86
2022/08/01 02:35:41;;;;;;;11.00;5.05;;;21.50;99.90;;;;;;4191042;28;20244;-96
2022/08/01 02:37:45;;;;;;;14.90;5.53;;;21.50;99.90;;;;;;4191663;28;20175;-94
2022/08/01 02:39:50;;;;;;;14.88;5.30;;;21.30;99.90;;;;;;4193050;28;20179;-86
2022/08/01 02:41:56;;;;;;;9.70;4.45;;;21.50;99.90;;;;;;4193713;28;20252;-94
2022/08/01 02:44:04;;;;;;;16.17;5.43;;;21.50;99.90;;;;;;4193158;28;20162;-96
2022/08/01 02:46:07;;;;;;;12.30;5.30;;;21.40;99.90;;;;;;4190121;28;20185;-86
2022/08/01 02:48:12;;;;;;;12.70;6.18;;;21.40;99.90;;;;;;4192882;28;20168;-86
2022/08/01 02:50:14;;;;;;;14.25;6.03;;;21.50;99.90;;;;;;4190604;28;20540;-86
2022/08/01 02:52:17;;;;;;;17.38;7.60;;;21.40;99.90;;;;;;4192035;28;20222;-87
2022/08/01 02:54:34;;;;;;;19.05;7.10;;;21.20;99.90;;;;;;4195219;28;20155;-87
2022/08/01 02:56:56;;;;;;;20.40;6.97;;;21.10;99.90;;;;;;4177282;28;20208;-86
2022/08/01 02:58:57;;;;;;;19.13;7.18;;;21.00;99.90;;;;;;4175458;28;20230;-86
2022/08/01 03:00:59;;;;;;;20.80;7.65;;;21.10;99.90;;;;;;4158539;28;20165;-86
2022/08/01 03:03:03;;;;;;;22.60;6.80;;;21.20;99.90;;;;;;4161886;28;20200;-94
2022/08/01 03:05:08;;;;;;;18.50;7.18;;;21.10;99.90;;;;;;4190973;28;20278;-87
2022/08/01 03:07:10;;;;;;;18.85;7.78;;;21.00;99.90;;;;;;4177455;28;20194;-86
2022/08/01 03:09:12;;;;;;;21.88;8.13;;;21.00;99.90;;;;;;4161137;28;20181;-86
2022/08/01 03:11:36;;;;;;;20.20;8.27;;;21.00;99.90;;;;;;4195780;28;20163;-95
2022/08/01 03:13:38;;;;;;;23.70;9.02;;;21.00;99.90;;;;;;4191254;28;20175;-86
2022/08/01 03:15:57;;;;;;;21.58;9.38;;;20.90;99.90;;;;;;4195343;28;20176;-86
2022/08/01 03:18:18;;;;;;;20.67;9.45;;;21.00;99.90;;;;;;4177649;28;20216;-92
2022/08/01 03:20:27;;;;;;;30.33;9.88;;;21.00;99.90;;;;;;4160481;28;20173;-86
2022/08/01 03:22:32;;;;;;;26.98;10.48;;;21.00;99.90;;;;;;4175546;28;20172;-86
2022/08/01 03:24:34;;;;;;;27.23;9.88;;;21.00;99.90;;;;;;4178344;28;20212;-88
2022/08/01 03:26:37;;;;;;;22.55;9.65;;;21.20;99.90;;;;;;4181414;28;20172;-91
2022/08/01 03:28:40;;;;;;;21.30;11.25;;;21.10;99.90;;;;;;4179603;28;20172;-88
2022/08/01 03:30:49;;;;;;;21.33;11.57;;;21.10;99.90;;;;;;4158807;28;20169;-87
2022/08/01 03:33:13;;;;;;;24.98;11.13;;;21.00;99.90;;;;;;4223384;22;20320;-93
2022/08/01 03:35:14;;;;;;;29.90;11.63;;;21.00;99.90;;;;;;4233076;28;20185;-87
2022/08/01 03:37:24;;;;;;;27.10;12.63;;;20.90;99.90;;;;;;4249525;28;20145;-86
2022/08/01 03:39:48;;;;;;;30.23;12.20;;;21.10;99.90;;;;;;4246148;28;20205;-86
2022/08/01 03:42:17;;;;;;;31.88;13.02;;;21.00;99.90;;;;;;4225082;28;20166;-86
2022/08/01 03:44:25;;;;;;;31.48;13.88;;;21.00;99.90;;;;;;4229335;28;20214;-86
2022/08/01 03:46:44;;;;;;;35.53;13.98;;;20.90;99.90;;;;;;4228081;28;20220;-88
2022/08/01 03:48:48;;;;;;;26.83;14.05;;;20.90;99.90;;;;;;4211727;28;20162;-86
2022/08/01 03:50:52;;;;;;;32.63;14.57;;;20.90;99.90;;;;;;4226893;28;20158;-95
2022/08/01 03:52:54;;;;;;;32.53;14.82;;;20.80;99.90;;;;;;4222743;28;20181;-90
2022/08/01 03:55:16;;;;;;;25.95;13.88;;;20.80;99.90;;;;;;4223798;28;20166;-92
2022/08/01 03:57:19;;;;;;;29.17;14.07;;;20.60;99.90;;;;;;4228032;28;20166;-95
2022/08/01 03:59:21;;;;;;;35.95;14.57;;;20.60;99.90;;;;;;4209393;28;20213;-87
2022/08/01 04:01:22;;;;;;;26.27;13.55;;;20.30;99.90;;;;;;4207883;28;20198;-96
2022/08/01 04:03:23;;;;;;;28.67;14.05;;;20.20;99.90;;;;;;4225928;28;20213;-96
2022/08/01 04:05:25;;;;;;;26.23;13.43;;;20.30;99.90;;;;;;4213199;28;20147;-86
2022/08/01 04:07:35;;;;;;;32.95;14.88;;;20.30;99.90;;;;;;4209104;28;20174;-96
2022/08/01 04:09:36;;;;;;;28.08;14.88;;;20.30;99.90;;;;;;4226354;28;20174;-96
2022/08/01 04:11:37;;;;;;;31.38;15.68;;;20.40;99.90;;;;;;4222604;28;20285;-87
2022/08/01 04:13:37;;;;;;;30.98;17.20;;;20.40;99.90;;;;;;4223567;28;20181;-87
2022/08/01 04:15:38;;;;;;;30.30;16.00;;;20.50;99.90;;;;;;4209822;28;20167;-87
2022/08/01 04:17:39;;;;;;;32.78;16.40;;;21.00;99.90;;;;;;4227971;28;20177;-92
2022/08/01 04:19:40;;;;;;;32.83;17.55;;;21.10;99.90;;;;;;4208832;28;20243;-87
2022/08/01 04:21:41;;;;;;;32.70;15.77;;;20.90;99.90;;;;;;4224360;28;20177;-89
2022/08/01 04:23:44;;;;;;;32.92;15.70;;;20.60;99.90;;;;;;4204396;28;20174;-96
2022/08/01 04:25:47;;;;;;;29.48;16.83;;;20.50;99.90;;;;;;4203321;28;20178;-91
2022/08/01 04:27:53;;;;;;;35.40;17.10;;;20.60;99.90;;;;;;4226339;28;20171;-88
2022/08/01 04:29:57;;;;;;;31.58;16.30;;;20.50;99.90;;;;;;4206637;28;20261;-96
2022/08/01 04:32:01;;;;;;;32.10;17.88;;;20.50;99.90;;;;;;4206476;28;20217;-95
2022/08/01 04:34:24;;;;;;;33.35;16.88;;;20.50;99.90;;;;;;4204878;28;20282;-88
2022/08/01 04:36:26;;;;;;;28.48;16.25;;;20.60;99.90;;;;;;4204001;28;20179;-96
2022/08/01 04:38:29;;;;;;;31.48;16.70;;;20.60;99.90;;;;;;4206323;28;20206;-94
2022/08/01 04:40:30;;;;;;;30.08;16.70;;;20.70;99.90;;;;;;4210737;28;20171;-89
2022/08/01 04:42:36;;;;;;;34.70;18.17;;;20.80;99.90;;;;;;4223678;28;20249;-92
2022/08/01 04:44:37;;;;;;;39.05;19.27;;;20.70;99.90;;;;;;4229061;28;20170;-94
2022/08/01 04:46:41;;;;;;;34.88;17.70;;;20.70;99.90;;;;;;4228117;28;20526;-87
2022/08/01 04:48:42;;;;;;;30.95;17.08;;;20.70;99.90;;;;;;4205130;28;20566;-87
2022/08/01 04:50:43;;;;;;;31.50;17.08;;;20.70;99.90;;;;;;4222264;28;20193;-88
2022/08/01 04:52:46;;;;;;;37.25;18.40;;;20.80;99.90;;;;;;4224478;28;20197;-94
2022/08/01 04:54:47;;;;;;;31.95;17.63;;;21.00;99.90;;;;;;4224577;28;20185;-87
2022/08/01 04:56:47;;;;;;;35.53;18.50;;;20.90;99.90;;;;;;4222979;28;20171;-96
2022/08/01 04:59:39;;;;;;;31.95;18.05;;;20.80;99.90;;;;;;4221646;28;20218;-87
2022/08/01 05:01:10;;;;;;;37.88;19.50;;;20.80;99.90;;;;;;4225032;28;20226;-89
2022/08/01 05:03:11;;;;;;;39.05;18.73;;;20.80;99.90;;;;;;4229439;28;20186;-87
2022/08/01 05:05:11;;;;;;;37.45;18.75;;;20.90;99.90;;;;;;4222349;28;20181;-87
2022/08/01 05:07:15;;;;;;;31.77;16.83;;;20.90;99.90;;;;;;4213534;28;20175;-96
2022/08/01 05:09:16;;;;;;;32.28;17.92;;;21.00;99.90;;;;;;4225366;28;20181;-87
2022/08/01 05:11:16;;;;;;;35.83;17.20;;;20.80;99.90;;;;;;4225629;28;20192;-88
2022/08/01 05:13:17;;;;;;;28.70;15.25;;;20.80;99.90;;;;;;4226506;28;20194;-87
2022/08/01 05:15:18;;;;;;;26.85;15.50;;;20.90;99.90;;;;;;4221636;28;20151;-90
2022/08/01 05:17:19;;;;;;;24.42;14.60;;;20.90;99.90;;;;;;4202160;28;20199;-88
2022/08/01 05:19:21;;;;;;;28.30;14.52;;;21.00;99.90;;;;;;4200363;28;20657;-87
2022/08/01 05:21:21;;;;;;;25.27;14.60;;;21.10;99.90;;;;;;4200120;28;20540;-88
2022/08/01 05:23:22;;;;;;;24.50;14.27;;;21.00;99.90;;;;;;4216945;28;20258;-87
2022/08/01 05:25:23;;;;;;;26.92;13.32;;;20.90;99.90;;;;;;4200355;28;20166;-87
2022/08/01 05:27:24;;;;;;;26.63;13.60;;;20.90;99.90;;;;;;4199515;28;20233;-88
2022/08/01 05:29:25;;;;;;;23.80;12.77;;;21.00;99.90;;;;;;4217837;28;20204;-88
2022/08/01 05:31:26;;;;;;;23.27;12.23;;;21.00;99.90;;;;;;4200741;28;20524;-88
2022/08/01 05:33:26;;;;;;;23.58;12.52;;;21.00;99.90;;;;;;4200705;28;20202;-88
2022/08/01 05:35:27;;;;;;;20.77;11.95;;;21.00;99.90;;;;;;4200706;28;20202;-90
2022/08/01 05:37:29;;;;;;;21.42;11.43;;;21.10;99.90;;;;;;4200983;28;20175;-87
2022/08/01 05:39:32;;;;;;;21.65;11.52;;;21.20;99.90;;;;;;4204704;28;20217;-87
2022/08/01 05:41:33;;;;;;;21.38;11.25;;;21.30;99.90;;;;;;4205132;28;20175;-88
2022/08/01 05:43:34;;;;;;;19.70;10.25;;;21.30;99.90;;;;;;4203486;28;20197;-88
2022/08/01 05:45:35;;;;;;;19.23;10.10;;;21.30;99.90;;;;;;4221923;28;20180;-88
2022/08/01 05:47:36;;;;;;;21.00;10.18;;;21.20;99.90;;;;;;4201308;28;20205;-88
2022/08/01 05:49:36;;;;;;;16.85;9.23;;;21.40;99.90;;;;;;4200428;28;20529;-87
2022/08/01 05:51:37;;;;;;;19.20;9.82;;;21.30;99.90;;;;;;4199764;28;20535;-87
2022/08/01 05:53:38;;;;;;;17.52;8.93;;;21.30;99.90;;;;;;4200697;28;20181;-88
2022/08/01 05:55:39;;;;;;;14.80;8.65;;;21.20;99.90;;;;;;4201169;28;20204;-87
2022/08/01 05:57:41;;;;;;;17.85;9.10;;;21.20;99.90;;;;;;4217523;28;20239;-88
2022/08/01 05:59:42;;;;;;;16.75;8.82;;;21.30;99.90;;;;;;4217830;28;20578;-88
2022/08/01 06:01:43;;;;;;;15.18;8.25;;;21.40;99.90;;;;;;4200645;28;20163;-88
2022/08/01 06:03:44;;;;;;;17.27;8.07;;;21.50;99.90;;;;;;4201060;28;20185;-88
2022/08/01 06:05:45;;;;;;;17.52;8.70;;;21.70;99.90;;;;;;4200071;28;20261;-87
2022/08/01 06:07:46;;;;;;;14.65;8.55;;;22.10;99.90;;;;;;4233603;28;20169;-87
2022/08/01 06:09:46;;;;;;;14.88;8.02;;;22.40;99.90;;;;;;4200303;28;20529;-87
2022/08/01 06:11:47;;;;;;;12.07;7.28;;;22.00;99.90;;;;;;4216750;28;20211;-87
2022/08/01 06:13:48;;;;;;;13.40;7.70;;;21.70;99.90;;;;;;4217652;28;20304;-87
2022/08/01 06:15:49;;;;;;;17.95;7.88;;;21.60;99.90;;;;;;4216965;28;20210;-87
2022/08/01 06:17:50;;;;;;;12.20;7.20;;;21.10;99.90;;;;;;4199515;28;20171;-88
2022/08/01 06:19:50;;;;;;;12.38;7.13;;;21.40;99.90;;;;;;4201821;28;20163;-88
2022/08/01 06:21:51;;;;;;;12.45;6.82;;;21.50;99.90;;;;;;4218013;28;20276;-88
2022/08/01 06:23:52;;;;;;;12.20;6.38;;;21.90;99.90;;;;;;4219971;28;20547;-88
2022/08/01 06:25:58;;;;;;;13.57;6.63;;;22.10;99.90;;;;;;4218794;28;20177;-87
2022/08/01 06:28:00;;;;;;;11.13;6.22;;;22.10;99.90;;;;;;4209875;28;20253;-88
2022/08/01 06:30:00;;;;;;;11.82;5.50;;;21.80;99.90;;;;;;4187604;28;20179;-87
2022/08/01 06:32:01;;;;;;;12.68;5.93;;;22.00;99.90;;;;;;4221906;28;20220;-89
2022/08/01 06:34:02;;;;;;;9.00;5.47;;;21.90;99.90;;;;;;4202652;28;20212;-87
2022/08/01 06:36:04;;;;;;;6.63;4.35;;;21.70;99.90;;;;;;4199927;28;20650;-88
2022/08/01 06:38:07;;;;;;;11.27;4.60;;;22.00;99.90;;;;;;4217357;28;20245;-89
2022/08/01 06:40:10;;;;;;;8.73;4.30;;;22.20;99.90;;;;;;4216881;28;20306;-87
2022/08/01 06:42:11;;;;;;;10.15;4.32;;;22.50;99.90;;;;;;4217262;28;20182;-88
2022/08/01 06:44:13;;;;;;;6.80;4.55;;;22.90;99.90;;;;;;4216660;28;20284;-87
2022/08/01 06:46:14;;;;;;;8.63;4.90;;;22.70;99.90;;;;;;4200092;28;20163;-87
2022/08/01 06:48:15;;;;;;;7.05;4.45;;;22.60;99.90;;;;;;4217009;28;20201;-87
2022/08/01 06:50:15;;;;;;;8.25;4.78;;;22.70;99.90;;;;;;4199741;28;20639;-87
2022/08/01 06:52:16;;;;;;;10.75;4.55;;;22.80;99.90;;;;;;4200128;28;20182;-86
2022/08/01 06:54:17;;;;;;;11.10;5.30;;;22.60;99.90;;;;;;4200374;28;20166;-88
2022/08/01 06:56:17;;;;;;;9.25;4.38;;;22.70;99.90;;;;;;4199783;28;20167;-87
2022/08/01 06:58:18;;;;;;;9.25;5.18;;;22.30;99.90;;;;;;4199878;28;20268;-88
2022/08/01 07:00:22;;;;;;;7.53;4.72;;;21.90;99.90;;;;;;4198754;28;20671;-87
2022/08/01 07:02:23;;;;;;;6.72;4.35;;;22.00;99.90;;;;;;4217649;28;20194;-87
2022/08/01 07:04:24;;;;;;;8.93;4.38;;;21.90;99.90;;;;;;4216565;28;20166;-87
2022/08/01 07:06:25;;;;;;;8.88;4.13;;;21.80;99.90;;;;;;4216144;28;20693;-87
2022/08/01 07:08:26;;;;;;;10.32;5.35;;;21.70;99.90;;;;;;4217821;28;20166;-87
2022/08/01 07:10:26;;;;;;;8.80;5.03;;;21.70;99.90;;;;;;4232905;28;20193;-86
2022/08/01 07:12:27;;;;;;;8.38;5.22;;;21.90;99.90;;;;;;4199548;28;20191;-87
2022/08/01 07:14:30;;;;;;;8.98;5.60;;;22.30;99.90;;;;;;4200781;28;20183;-87
2022/08/01 07:16:30;;;;;;;9.30;5.40;;;22.50;99.90;;;;;;4216214;28;20174;-87
2022/08/01 07:18:31;;;;;;;7.72;4.78;;;22.80;99.90;;;;;;4217642;28;20214;-88
2022/08/01 07:20:32;;;;;;;9.23;5.63;;;23.20;99.90;;;;;;4216165;28;20252;-88
2022/08/01 07:22:32;;;;;;;9.80;4.80;;;23.10;99.90;;;;;;4215983;28;20197;-87
2022/08/01 07:24:34;;;;;;;8.85;4.80;;;23.10;99.90;;;;;;4199078;28;20193;-87
2022/08/01 07:26:34;;;;;;;7.25;4.68;;;22.90;99.90;;;;;;4200611;28;20170;-87
2022/08/01 07:28:35;;;;;;;7.05;4.40;;;22.80;99.90;;;;;;4200836;28;20207;-87
2022/08/01 07:30:37;;;;;;;6.00;4.05;;;22.60;99.90;;;;;;4218289;28;20638;-87
2022/08/01 07:32:37;;;;;;;6.75;2.60;;;22.50;99.90;;;;;;4203731;28;20202;-88
2022/08/01 07:34:38;;;;;;;4.63;2.60;;;22.70;99.90;;;;;;4217039;28;20205;-87
2022/08/01 07:36:39;;;;;;;3.78;2.63;;;22.60;99.90;;;;;;4203558;28;20174;-87
2022/08/01 07:38:41;;;;;;;2.55;2.17;;;22.60;99.90;;;;;;4215711;28;20220;-88
2022/08/01 07:40:41;;;;;;;4.75;2.58;;;22.60;99.90;;;;;;4215794;28;20192;-87
2022/08/01 07:42:43;;;;;;;4.55;2.55;;;22.40;99.90;;;;;;4199443;28;20198;-86
2022/08/01 07:44:45;;;;;;;3.85;2.35;;;22.40;99.90;;;;;;4200424;28;20178;-87
2022/08/01 07:46:45;;;;;;;4.43;2.03;;;22.50;99.90;;;;;;4199530;28;20183;-87
2022/08/01 07:48:46;;;;;;;3.88;2.25;;;22.60;99.90;;;;;;4183332;28;20223;-87
2022/08/01 07:50:47;;;;;;;2.83;2.55;;;22.90;99.90;;;;;;4198815;28;20730;-87
2022/08/01 07:52:47;;;;;;;3.38;2.45;;;23.00;99.90;;;;;;4215775;28;20713;-87
2022/08/01 07:54:48;;;;;;;2.85;2.45;;;23.10;99.90;;;;;;4216365;28;20562;-87
2022/08/01 07:56:50;;;;;;;2.85;2.20;;;23.30;99.90;;;;;;4199732;28;20189;-87
2022/08/01 07:58:51;;;;;;;6.32;2.60;;;23.70;99.90;;;;;;4198730;28;20167;-89
2022/08/01 08:00:51;;;;;;;6.38;2.50;;;24.20;99.90;;;;;;4215025;28;20264;-89
2022/08/01 08:02:53;;;;;;;5.00;3.92;;;24.50;99.90;;;;;;4215811;28;20197;-90
2022/08/01 08:04:54;;;;;;;6.68;4.80;;;24.60;99.90;;;;;;4198328;28;20179;-89
2022/08/01 08:06:54;;;;;;;5.97;4.80;;;24.20;99.90;;;;;;4214835;28;20201;-89
2022/08/01 08:08:55;;;;;;;8.98;4.32;;;24.30;99.90;;;;;;4198336;28;20221;-89
2022/08/01 08:10:56;;;;;;;9.00;3.65;;;24.30;99.90;;;;;;4215281;28;20178;-91
2022/08/01 08:12:56;;;;;;;4.53;3.13;;;24.40;99.90;;;;;;4215596;28;20273;-90
2022/08/01 08:14:58;;;;;;;5.18;3.25;;;24.20;99.90;;;;;;4217539;28;20174;-88
2022/08/01 08:16:59;;;;;;;3.08;2.17;;;24.70;99.90;;;;;;4200932;28;20635;-89
2022/08/01 08:19:00;;;;;;;5.68;2.17;;;25.10;99.90;;;;;;4217969;28;20205;-88
2022/08/01 08:21:00;;;;;;;2.38;2.00;;;25.20;99.90;;;;;;4200796;28;20605;-88
2022/08/01 08:23:01;;;;;;;3.40;1.73;;;24.80;99.90;;;;;;4217903;28;20186;-89
2022/08/01 08:25:02;;;;;;;2.17;1.42;;;24.70;99.90;;;;;;4200289;28;20186;-89
2022/08/01 08:27:03;;;;;;;5.00;1.85;;;24.30;99.90;;;;;;4218133;28;20246;-89
2022/08/01 08:29:04;;;;;;;3.60;1.50;;;24.70;99.90;;;;;;4235743;28;20193;-90
2022/08/01 08:31:05;;;;;;;5.18;1.40;;;25.60;99.90;;;;;;4202021;28;20202;-89
2022/08/01 08:33:05;;;;;;;1.90;1.40;;;26.40;99.90;;;;;;4217653;28;20206;-89
2022/08/01 08:35:07;;;;;;;1.98;1.20;;;27.10;99.90;;;;;;4201691;28;20179;-90
2022/08/01 08:37:08;;;;;;;2.30;1.40;;;27.20;99.90;;;;;;4204152;28;20175;-89
2022/08/01 08:39:09;;;;;;;1.80;1.38;;;27.10;99.90;;;;;;4217961;28;20169;-88
2022/08/01 08:41:10;;;;;;;2.15;1.55;;;26.90;99.90;;;;;;4200437;28;20174;-91
2022/08/01 08:43:10;;;;;;;2.30;1.30;;;27.10;99.90;;;;;;4200069;28;20198;-88
2022/08/01 08:45:12;;;;;;;4.57;0.82;;;27.30;99.90;;;;;;4216835;28;20253;-89
2022/08/01 08:47:14;;;;;;;2.50;1.20;;;27.10;99.90;;;;;;4200094;28;20244;-92
2022/08/01 08:49:19;;;;;;;3.90;1.20;;;27.20;99.90;;;;;;4200070;28;20210;-88
2022/08/01 08:51:22;;;;;;;1.17;1.05;;;27.90;99.90;;;;;;4200265;28;20163;-89
2022/08/01 08:53:23;;;;;;;2.67;1.33;;;28.60;99.90;;;;;;4216029;28;20229;-88
2022/08/01 08:55:26;;;;;;;6.68;2.38;;;28.60;99.90;;;;;;4199763;28;20261;-94
2022/08/01 08:57:26;;;;;;;3.80;2.10;;;27.90;99.90;;;;;;4199938;28;20260;-88
2022/08/01 08:59:28;;;;;;;3.90;2.30;;;27.10;99.90;;;;;;4200275;28;20273;-91
2022/08/01 09:01:32;;;;;;;4.93;2.63;;;27.70;99.90;;;;;;4199284;28;20163;-89
2022/08/01 09:03:33;;;;;;;5.80;3.00;;;28.60;99.90;;;;;;4199394;28;20201;-91
2022/08/01 09:05:34;;;;;;;9.02;3.30;;;28.40;99.90;;;;;;4199773;28;20198;-87
2022/08/01 09:07:34;;;;;;;4.95;3.40;;;28.80;99.90;;;;;;4199897;28;20269;-88
2022/08/01 09:09:37;;;;;;;4.32;3.15;;;29.40;99.90;;;;;;4199667;28;20206;-90
2022/08/01 09:11:37;;;;;;;6.18;3.50;;;29.70;99.90;;;;;;4199536;28;20170;-89
2022/08/01 09:13:38;;;;;;;8.65;3.97;;;29.60;99.90;;;;;;4199738;28;20262;-89
2022/08/01 09:15:44;;;;;;;6.07;3.50;;;29.50;99.90;;;;;;4199610;28;20158;-89
2022/08/01 09:17:45;;;;;;;2.50;2.30;;;29.40;99.90;;;;;;4216506;28;20192;-93
2022/08/01 09:19:48;;;;;;;3.25;1.90;;;28.50;99.90;;;;;;4199444;28;20175;-89
2022/08/01 09:22:04;;;;;;;3.45;1.90;;;27.00;99.90;;;;;;4199589;28;20279;-88
2022/08/01 09:24:15;;;;;;;2.97;1.80;;;26.90;99.90;;;;;;4215814;28;20170;-88
2022/08/01 09:26:30;;;;;;;3.40;1.90;;;26.70;99.90;;;;;;4199581;28;20174;-88
2022/08/01 09:28:31;;;;;;;3.22;2.00;;;27.00;99.90;;;;;;4199311;28;20236;-92
2022/08/01 09:30:39;;;;;;;3.65;1.98;;;28.40;99.90;;;;;;4199331;28;20170;-91
2022/08/01 09:33:04;;;;;;;3.83;2.13;;;28.80;99.90;;;;;;4215705;28;20294;-91
2022/08/01 09:35:23;;;;;;;4.10;1.45;;;28.90;99.90;;;;;;4216330;28;20159;-88
2022/08/01 09:37:30;;;;;;;2.28;1.50;;;28.30;99.90;;;;;;4232970;28;20176;-89
2022/08/01 09:39:37;;;;;;;3.05;1.50;;;28.40;99.90;;;;;;4216147;28;20204;-88
2022/08/01 09:41:38;;;;;;;3.08;1.60;;;27.60;99.90;;;;;;4216098;28;20178;-90
2022/08/01 09:43:38;;;;;;;1.55;0.90;;;27.90;99.90;;;;;;4216202;28;20544;-91
2022/08/01 09:45:39;;;;;;;0.98;0.70;;;29.10;99.90;;;;;;4216219;28;20188;-88
2022/08/01 09:47:40;;;;;;;0.88;0.80;;;29.70;99.90;;;;;;4216127;28;20260;-89
2022/08/01 09:49:42;;;;;;;1.75;0.70;;;30.00;99.90;;;;;;4216372;28;20170;-94
2022/08/01 09:51:43;;;;;;;1.92;0.80;;;30.60;99.90;;;;;;4199108;28;20318;-93
2022/08/01 09:53:46;;;;;;;1.95;0.68;;;30.40;99.90;;;;;;4199715;28;20206;-87
2022/08/01 09:55:50;;;;;;;1.33;0.73;;;29.60;99.90;;;;;;4201028;28;20248;-91
2022/08/01 09:58:00;;;;;;;3.70;0.80;;;29.10;99.90;;;;;;4202278;28;20257;-87
2022/08/01 10:00:02;;;;;;;1.38;0.70;;;28.50;99.90;;;;;;4200524;28;20179;-87
2022/08/01 10:02:25;;;;;;;1.23;0.80;;;28.00;99.90;;;;;;4215995;28;20206;-87
2022/08/01 10:04:27;;;;;;;5.00;1.27;;;27.40;99.90;;;;;;4232348;28;20173;-88
2022/08/01 10:06:28;;;;;;;2.05;1.45;;;27.10;99.90;;;;;;4198766;28;20174;-89
2022/08/01 10:08:45;;;;;;;4.65;1.75;;;26.90;99.90;;;;;;4215415;28;20201;-88
2022/08/01 10:11:09;;;;;;;3.05;2.00;;;27.10;99.90;;;;;;4199009;28;20167;-87
2022/08/01 10:13:11;;;;;;;4.55;1.52;;;27.00;99.90;;;;;;4198855;28;20197;-88
2022/08/01 10:15:15;;;;;;;2.40;1.58;;;27.10;99.90;;;;;;4198873;28;20167;-88
2022/08/01 10:17:17;;;;;;;2.78;1.45;;;26.90;99.90;;;;;;4198548;28;20543;-88
2022/08/01 10:19:20;;;;;;;2.33;1.30;;;26.90;99.90;;;;;;4215245;28;20217;-90
2022/08/01 10:21:25;;;;;;;3.63;1.42;;;26.80;99.90;;;;;;4198672;28;20661;-88
2022/08/01 10:23:29;;;;;;;2.40;1.35;;;27.30;99.90;;;;;;4215221;28;20673;-88
2022/08/01 10:25:36;;;;;;;2.03;1.30;;;27.90;99.90;;;;;;4198654;28;20175;-88
2022/08/01 10:27:38;;;;;;;2.38;1.17;;;28.00;99.90;;;;;;4215352;28;20208;-89
2022/08/01 10:29:45;;;;;;;4.45;1.55;;;28.60;99.90;;;;;;4215436;28;20241;-88
2022/08/01 10:31:47;;;;;;;3.83;1.48;;;28.30;99.90;;;;;;4198400;28;20261;-88
2022/08/01 10:33:49;;;;;;;2.78;1.35;;;28.00;99.90;;;;;;4182245;28;20250;-88
2022/08/01 10:35:51;;;;;;;3.17;1.30;;;28.30;99.90;;;;;;4214382;28;20715;-89
2022/08/01 10:37:57;;;;;;;3.28;1.23;;;28.60;99.90;;;;;;4232112;28;20208;-91
2022/08/01 10:39:58;;;;;;;3.70;1.30;;;28.70;99.90;;;;;;4198601;28;20253;-96
2022/08/01 10:42:00;;;;;;;3.97;1.50;;;28.50;99.90;;;;;;4198182;28;20247;-88